Time;durP1;ratioP1;P1;durP2;ratioP2;P2;SDS_P1;SDS_P2;PMS_P1;PMS_P2;Temp;Humidity;BMP_temperature;BMP_pressure;BME280_temperature;BME280_humidity;BME280_pressure;Samples;Min_cycle;Max_cycle;Signal;HPM_P1;HPM_P2
2022/07/03 00:01:24;;;;;;;3.15;2.03;;;23.80;77.80;;;;;;5066705;28;20025;-67
2022/07/03 00:03:50;;;;;;;5.55;2.00;;;23.70;77.80;;;;;;5062961;28;20021;-67
2022/07/03 00:06:16;;;;;;;4.85;2.40;;;23.70;77.90;;;;;;5065881;28;20061;-67
2022/07/03 00:08:42;;;;;;;6.72;2.47;;;23.70;77.80;;;;;;5071063;28;20040;-67
2022/07/03 00:11:11;;;;;;;6.25;2.50;;;23.60;77.80;;;;;;5070177;28;20035;-67
2022/07/03 00:13:37;;;;;;;4.50;2.15;;;23.60;77.80;;;;;;5061154;28;20029;-67
2022/07/03 00:16:03;;;;;;;9.18;2.92;;;23.60;78.00;;;;;;5067472;28;20029;-66
2022/07/03 00:18:29;;;;;;;9.40;3.60;;;23.60;78.00;;;;;;5061652;28;20082;-67
2022/07/03 00:21:02;;;;;;;9.45;3.88;;;23.60;78.00;;;;;;5066035;28;20365;-67
2022/07/03 00:23:34;;;;;;;5.20;2.38;;;23.60;78.10;;;;;;5069756;28;20021;-67
2022/07/03 00:26:02;;;;;;;3.38;1.80;;;23.60;78.00;;;;;;5064228;28;20086;-67
2022/07/03 00:28:28;;;;;;;5.40;2.10;;;23.50;78.00;;;;;;5051404;28;20131;-66
2022/07/03 00:30:57;;;;;;;8.55;2.47;;;23.50;78.10;;;;;;5056404;28;20035;-66
2022/07/03 00:33:26;;;;;;;5.47;2.50;;;23.40;78.00;;;;;;5063676;28;20053;-67
2022/07/03 00:35:54;;;;;;;4.50;1.83;;;23.40;78.00;;;;;;5072355;28;20111;-67
2022/07/03 00:38:22;;;;;;;4.55;2.00;;;23.40;77.90;;;;;;5062620;28;20487;-67
2022/07/03 00:40:48;;;;;;;7.63;2.40;;;23.40;78.00;;;;;;5061218;28;20052;-67
2022/07/03 00:43:22;;;;;;;5.72;2.25;;;23.40;77.90;;;;;;5055261;28;20048;-67
2022/07/03 00:45:49;;;;;;;6.00;2.15;;;23.30;77.80;;;;;;5069257;28;20085;-67
2022/07/03 00:48:17;;;;;;;4.55;2.15;;;23.30;77.90;;;;;;5073788;28;20013;-67
2022/07/03 00:50:48;;;;;;;3.53;2.20;;;23.30;77.90;;;;;;5071929;28;20040;-67
2022/07/03 00:53:19;;;;;;;3.47;2.22;;;23.20;77.80;;;;;;5055085;28;20040;-66
2022/07/03 00:55:49;;;;;;;8.15;2.30;;;23.20;77.90;;;;;;5064684;28;20025;-66
2022/07/03 00:58:17;;;;;;;4.57;2.10;;;23.10;77.90;;;;;;5064911;28;20058;-66
2022/07/03 01:00:47;;;;;;;5.35;2.63;;;23.10;78.00;;;;;;5073662;28;20113;-66
2022/07/03 01:03:16;;;;;;;8.30;2.30;;;23.10;78.00;;;;;;5074024;28;20079;-67
2022/07/03 01:06:13;;;;;;;4.57;2.28;;;23.00;77.90;;;;;;5072185;28;20524;-66
2022/07/03 01:08:58;;;;;;;4.93;2.40;;;23.10;78.00;;;;;;5064282;28;20186;-66
2022/07/03 01:11:30;;;;;;;6.22;2.65;;;23.00;78.00;;;;;;5062724;28;20068;-67
2022/07/03 01:14:05;;;;;;;3.53;2.20;;;22.90;78.10;;;;;;5066846;28;20036;-66
2022/07/03 01:17:02;;;;;;;5.47;2.55;;;22.90;78.20;;;;;;5058580;28;20434;-67
2022/07/03 01:19:42;;;;;;;3.72;2.42;;;22.90;78.20;;;;;;5067588;28;20468;-66
2022/07/03 01:22:31;;;;;;;5.13;2.50;;;22.80;78.20;;;;;;5072208;28;20056;-66
2022/07/03 01:25:13;;;;;;;5.53;2.70;;;22.80;78.30;;;;;;5065337;28;20562;-67
2022/07/03 01:28:01;;;;;;;6.13;2.60;;;22.80;78.40;;;;;;5055008;28;20025;-67
2022/07/03 01:30:32;;;;;;;3.78;2.55;;;22.80;78.50;;;;;;5064188;28;20353;-67
2022/07/03 01:33:02;;;;;;;7.18;2.85;;;22.70;78.60;;;;;;5073038;28;20036;-66
2022/07/03 01:35:37;;;;;;;5.45;2.85;;;22.70;78.60;;;;;;5073947;28;20435;-66
2022/07/03 01:38:05;;;;;;;5.00;2.83;;;22.60;78.70;;;;;;5060827;28;20063;-66
2022/07/03 01:40:33;;;;;;;7.38;2.70;;;22.60;78.70;;;;;;5072682;28;20028;-66
2022/07/03 01:43:01;;;;;;;5.30;2.63;;;22.60;78.80;;;;;;5062930;28;20039;-66
2022/07/03 01:45:30;;;;;;;5.47;2.85;;;22.50;78.70;;;;;;5061632;28;20041;-67
2022/07/03 01:47:57;;;;;;;4.25;2.90;;;22.60;78.90;;;;;;5072628;28;20049;-67
2022/07/03 01:50:24;;;;;;;7.47;3.13;;;22.50;79.00;;;;;;5063482;28;20041;-66
2022/07/03 01:52:51;;;;;;;4.85;2.58;;;22.60;79.10;;;;;;5059456;28;20487;-66
2022/07/03 01:55:19;;;;;;;4.38;2.88;;;22.50;79.10;;;;;;5073117;28;20078;-66
2022/07/03 01:57:47;;;;;;;5.88;2.80;;;22.50;79.20;;;;;;5072965;28;20099;-66
2022/07/03 02:00:15;;;;;;;3.85;2.60;;;22.40;79.30;;;;;;5072300;28;20427;-66
2022/07/03 02:02:46;;;;;;;4.97;2.60;;;22.40;79.40;;;;;;5060706;28;20020;-66
2022/07/03 02:05:33;;;;;;;4.80;2.65;;;22.30;79.40;;;;;;5070373;28;20025;-67
2022/07/03 02:08:13;;;;;;;4.88;3.15;;;22.30;79.30;;;;;;5066326;28;20094;-66
2022/07/03 02:10:51;;;;;;;6.40;2.85;;;22.30;79.30;;;;;;5072195;28;20120;-66
2022/07/03 02:13:23;;;;;;;8.25;2.72;;;22.20;79.20;;;;;;5065795;28;20029;-66
2022/07/03 02:15:53;;;;;;;6.22;3.30;;;22.20;79.30;;;;;;5073451;28;20443;-66
2022/07/03 02:18:33;;;;;;;5.25;3.00;;;22.20;79.40;;;;;;5059594;28;21372;-66
2022/07/03 02:21:14;;;;;;;6.75;3.13;;;22.20;79.40;;;;;;5070436;28;20036;-66
2022/07/03 02:24:05;;;;;;;6.32;3.13;;;22.10;79.70;;;;;;5053464;28;20029;-66
2022/07/03 02:26:38;;;;;;;7.85;3.22;;;22.10;80.40;;;;;;5070562;28;20496;-66
2022/07/03 02:29:16;;;;;;;4.93;3.85;;;22.00;80.00;;;;;;5067110;28;20028;-66
2022/07/03 02:31:45;;;;;;;8.45;3.45;;;22.00;80.00;;;;;;5061738;28;20123;-66
2022/07/03 02:34:17;;;;;;;10.70;3.60;;;22.00;80.10;;;;;;5059754;28;20024;-66
2022/07/03 02:36:48;;;;;;;7.43;3.42;;;22.00;80.20;;;;;;5072327;28;20024;-66
2022/07/03 02:39:27;;;;;;;5.80;3.13;;;21.90;80.40;;;;;;5053285;28;20036;-66
2022/07/03 02:41:59;;;;;;;12.55;3.47;;;21.80;80.70;;;;;;5064144;28;20465;-66
2022/07/03 02:44:36;;;;;;;6.25;3.25;;;21.80;80.90;;;;;;5051623;28;20020;-67
2022/07/03 02:47:33;;;;;;;9.30;3.35;;;21.80;80.90;;;;;;5062973;28;20049;-66
2022/07/03 02:50:10;;;;;;;7.22;3.10;;;21.80;80.90;;;;;;5065135;28;20044;-66
2022/07/03 02:52:42;;;;;;;4.30;3.30;;;21.70;80.90;;;;;;5053730;28;20020;-66
2022/07/03 02:55:11;;;;;;;6.35;3.38;;;21.70;81.00;;;;;;5071158;28;20032;-66
2022/07/03 02:57:41;;;;;;;7.75;3.53;;;21.70;81.20;;;;;;5071507;28;20108;-66
2022/07/03 03:00:11;;;;;;;7.72;3.72;;;21.60;81.30;;;;;;5067427;28;20037;-66
2022/07/03 03:02:49;;;;;;;6.80;3.22;;;21.60;81.50;;;;;;5053199;28;20108;-66
2022/07/03 03:05:21;;;;;;;4.57;2.53;;;21.50;81.40;;;;;;5062238;28;20064;-66
2022/07/03 03:08:22;;;;;;;7.22;3.17;;;21.50;79.40;;;;;;5066669;28;20036;-66
2022/07/03 03:10:49;;;;;;;4.50;2.80;;;21.40;79.40;;;;;;5030787;28;20037;-66
2022/07/03 03:13:19;;;;;;;5.75;2.53;;;21.40;79.10;;;;;;5072222;28;20028;-66
2022/07/03 03:16:01;;;;;;;4.47;2.67;;;21.40;79.00;;;;;;5069643;28;20488;-66
2022/07/03 03:18:29;;;;;;;7.65;3.00;;;21.20;78.90;;;;;;5059125;28;20135;-66
2022/07/03 03:21:00;;;;;;;9.45;4.38;;;21.20;79.00;;;;;;5060560;28;20041;-66
2022/07/03 03:23:48;;;;;;;5.40;3.40;;;21.20;79.50;;;;;;5067245;28;20475;-66
2022/07/03 03:26:16;;;;;;;7.68;3.50;;;21.20;80.00;;;;;;5064762;28;20060;-66
2022/07/03 03:28:42;;;;;;;6.72;3.25;;;21.10;80.00;;;;;;5056778;28;20043;-67
2022/07/03 03:31:09;;;;;;;8.70;3.42;;;21.00;80.30;;;;;;5063831;28;20504;-66
2022/07/03 03:33:41;;;;;;;4.32;2.97;;;21.00;80.30;;;;;;5062864;28;20494;-66
2022/07/03 03:36:11;;;;;;;6.15;3.38;;;20.90;80.40;;;;;;5071114;28;20031;-67
2022/07/03 03:38:38;;;;;;;7.20;3.08;;;20.90;80.30;;;;;;5066451;28;20035;-66
2022/07/03 03:41:05;;;;;;;5.50;3.47;;;20.90;81.00;;;;;;5069562;28;20086;-66
2022/07/03 03:43:32;;;;;;;5.63;3.40;;;20.80;80.60;;;;;;5067260;28;20107;-67
2022/07/03 03:45:58;;;;;;;7.97;3.78;;;20.80;80.90;;;;;;5065582;28;20046;-66
2022/07/03 03:48:27;;;;;;;4.25;3.50;;;20.80;81.20;;;;;;5059425;28;20082;-66
2022/07/03 03:50:53;;;;;;;5.07;3.50;;;20.70;81.90;;;;;;5060728;28;20033;-66
2022/07/03 03:53:19;;;;;;;7.13;3.90;;;20.70;81.40;;;;;;5052074;28;20090;-67
2022/07/03 03:56:05;;;;;;;9.43;3.42;;;20.70;81.60;;;;;;5065633;28;20115;-66
2022/07/03 03:58:32;;;;;;;7.28;4.15;;;20.70;81.80;;;;;;5068880;28;20041;-67
2022/07/03 04:01:00;;;;;;;6.38;3.75;;;20.70;81.90;;;;;;5071025;28;20530;-66
2022/07/03 04:03:27;;;;;;;7.57;3.90;;;20.70;82.10;;;;;;5071840;28;20032;-66
2022/07/03 04:05:53;;;;;;;6.93;3.63;;;20.70;82.40;;;;;;5066723;28;20040;-66
2022/07/03 04:08:20;;;;;;;6.18;3.30;;;20.70;82.40;;;;;;5067660;28;20468;-66
2022/07/03 04:10:47;;;;;;;9.25;3.80;;;20.70;82.40;;;;;;5074356;28;20472;-66
2022/07/03 04:13:13;;;;;;;8.02;3.58;;;20.70;82.30;;;;;;5075176;28;20040;-66
2022/07/03 04:15:39;;;;;;;6.38;3.92;;;20.70;82.20;;;;;;5074823;28;20440;-66
2022/07/03 04:18:05;;;;;;;11.65;4.10;;;20.70;82.40;;;;;;5075350;28;20059;-66
2022/07/03 04:20:31;;;;;;;10.90;4.07;;;20.70;82.60;;;;;;5069099;28;20064;-66
2022/07/03 04:22:57;;;;;;;7.28;3.95;;;20.60;82.70;;;;;;5064839;28;20020;-67
2022/07/03 04:25:23;;;;;;;5.45;3.85;;;20.60;83.10;;;;;;5066295;28;20083;-67
2022/07/03 04:27:49;;;;;;;6.88;3.92;;;20.60;83.50;;;;;;5065457;28;20056;-66
2022/07/03 04:30:15;;;;;;;4.88;3.65;;;20.60;83.80;;;;;;5074361;28;20033;-66
2022/07/03 04:32:41;;;;;;;4.60;3.38;;;20.60;83.70;;;;;;5061621;28;20025;-66
2022/07/03 04:35:07;;;;;;;7.78;3.53;;;20.60;83.40;;;;;;5065893;28;20056;-66
2022/07/03 04:37:33;;;;;;;6.07;3.53;;;20.60;83.00;;;;;;5066075;28;20103;-66
2022/07/03 04:39:58;;;;;;;8.73;3.55;;;20.50;82.90;;;;;;5067225;28;20032;-66
2022/07/03 04:42:24;;;;;;;4.75;3.30;;;20.50;82.80;;;;;;5067958;28;20366;-66
2022/07/03 04:44:50;;;;;;;8.32;3.53;;;20.50;82.80;;;;;;5069731;28;20036;-66
2022/07/03 04:47:16;;;;;;;4.82;3.55;;;20.40;83.00;;;;;;5060737;28;20750;-66
2022/07/03 04:49:42;;;;;;;8.23;4.10;;;20.50;83.50;;;;;;5074403;28;20032;-66
2022/07/03 04:52:08;;;;;;;7.25;3.70;;;20.40;83.80;;;;;;5069558;28;20039;-66
2022/07/03 04:54:34;;;;;;;5.47;3.03;;;20.50;83.90;;;;;;5060780;28;20033;-66
2022/07/03 04:57:06;;;;;;;8.50;3.42;;;20.40;83.50;;;;;;5069396;28;20035;-66
2022/07/03 04:59:31;;;;;;;6.70;3.30;;;20.40;83.40;;;;;;5062374;28;20473;-67
2022/07/03 05:01:57;;;;;;;9.82;3.50;;;20.50;83.60;;;;;;5068549;28;20040;-66
2022/07/03 05:04:23;;;;;;;7.72;4.00;;;20.50;84.00;;;;;;5069622;28;20024;-66
2022/07/03 05:06:49;;;;;;;9.05;3.45;;;20.40;83.70;;;;;;5065161;28;20056;-66
2022/07/03 05:09:15;;;;;;;5.53;3.15;;;20.50;83.30;;;;;;5072736;28;20086;-66
2022/07/03 05:11:41;;;;;;;7.18;3.75;;;20.50;83.40;;;;;;5067601;28;20024;-66
2022/07/03 05:14:07;;;;;;;6.95;3.58;;;20.50;83.50;;;;;;5063418;28;20372;-66
2022/07/03 05:16:33;;;;;;;8.40;3.50;;;20.40;83.60;;;;;;5067171;28;20033;-66
2022/07/03 05:18:59;;;;;;;7.90;4.05;;;20.50;83.80;;;;;;5069888;28;20028;-66
2022/07/03 05:21:25;;;;;;;9.23;3.80;;;20.50;84.20;;;;;;5073638;28;20040;-66
2022/07/03 05:23:51;;;;;;;5.88;3.97;;;20.50;84.60;;;;;;5068049;28;20083;-66
2022/07/03 05:26:17;;;;;;;6.50;3.92;;;20.50;84.60;;;;;;5066842;28;20052;-67
2022/07/03 05:28:43;;;;;;;6.50;3.28;;;20.60;84.60;;;;;;5071567;28;20069;-67
2022/07/03 05:31:11;;;;;;;7.43;3.28;;;20.50;83.80;;;;;;5064052;28;20104;-66
2022/07/03 05:33:37;;;;;;;8.90;3.75;;;20.60;83.90;;;;;;5064743;28;20017;-66
2022/07/03 05:36:03;;;;;;;5.20;3.47;;;20.60;84.20;;;;;;5057826;28;20440;-66
2022/07/03 05:41:13;;;;;;;8.07;3.50;;;20.60;84.90;;;;;;5060312;28;20384;-66
2022/07/03 05:43:39;;;;;;;8.05;3.72;;;20.60;85.00;;;;;;5072891;28;20031;-67
2022/07/03 05:46:05;;;;;;;4.38;3.20;;;20.60;84.70;;;;;;5073230;28;20122;-67
2022/07/03 05:48:33;;;;;;;6.55;3.70;;;20.70;84.80;;;;;;5073631;28;20056;-66
2022/07/03 05:50:59;;;;;;;5.32;3.15;;;20.70;85.20;;;;;;5069693;28;20426;-66
2022/07/03 05:53:25;;;;;;;10.00;3.90;;;20.70;85.40;;;;;;5062922;28;20035;-66
2022/07/03 05:55:51;;;;;;;8.82;3.90;;;20.80;86.10;;;;;;5071125;28;20028;-66
2022/07/03 05:58:16;;;;;;;7.72;4.18;;;20.80;86.40;;;;;;5061588;28;20028;-66
2022/07/03 06:00:45;;;;;;;4.93;3.00;;;20.80;86.10;;;;;;5071631;28;20657;-67
2022/07/03 06:03:14;;;;;;;6.60;2.85;;;20.90;86.00;;;;;;5072862;28;20029;-66
2022/07/03 06:05:39;;;;;;;5.25;3.15;;;20.90;85.20;;;;;;5067182;28;20480;-66
2022/07/03 06:08:06;;;;;;;5.32;2.78;;;20.80;85.30;;;;;;5053456;28;20062;-66
2022/07/03 06:10:31;;;;;;;5.45;3.10;;;20.90;85.80;;;;;;5056396;28;20391;-66
2022/07/03 06:12:57;;;;;;;3.65;2.72;;;20.80;85.00;;;;;;5072646;28;20162;-67
2022/07/03 06:15:23;;;;;;;5.50;2.55;;;20.90;84.70;;;;;;5071969;28;20479;-67
2022/07/03 06:17:52;;;;;;;4.97;2.70;;;20.90;84.50;;;;;;5072641;28;20028;-66
2022/07/03 06:20:18;;;;;;;4.57;2.17;;;20.90;84.00;;;;;;5068269;28;20476;-67
2022/07/03 06:22:44;;;;;;;5.65;2.28;;;20.90;83.40;;;;;;5053736;28;20064;-66
2022/07/03 06:25:09;;;;;;;13.07;2.33;;;20.90;83.10;;;;;;5069416;28;20065;-66
2022/07/03 06:27:35;;;;;;;4.53;2.30;;;20.90;83.30;;;;;;5071914;28;20033;-67
2022/07/03 06:30:01;;;;;;;7.30;2.20;;;20.80;82.80;;;;;;5071516;28;20031;-66
2022/07/03 06:32:27;;;;;;;4.20;1.88;;;20.80;82.90;;;;;;5070743;28;20112;-67
2022/07/03 06:34:52;;;;;;;5.57;2.45;;;20.80;83.40;;;;;;5055626;28;20017;-66
2022/07/03 06:37:19;;;;;;;2.50;1.80;;;20.80;84.40;;;;;;5061502;28;20388;-66
2022/07/03 06:39:45;;;;;;;2.45;1.60;;;20.90;84.50;;;;;;5066289;28;20033;-66
2022/07/03 06:42:13;;;;;;;4.78;2.03;;;20.90;84.30;;;;;;5062229;28;20107;-66
2022/07/03 06:44:40;;;;;;;3.67;1.67;;;20.80;83.60;;;;;;5067396;28;20033;-67
2022/07/03 06:47:06;;;;;;;3.40;1.75;;;20.90;83.40;;;;;;5064054;28;20037;-67
2022/07/03 06:49:34;;;;;;;3.30;1.67;;;20.90;83.20;;;;;;5056466;28;20495;-66
2022/07/03 06:52:00;;;;;;;4.35;2.08;;;20.90;83.00;;;;;;5060175;28;20081;-66
2022/07/03 06:54:26;;;;;;;4.03;1.70;;;21.00;83.40;;;;;;5067786;28;20074;-65
2022/07/03 06:56:52;;;;;;;2.97;1.77;;;21.00;83.50;;;;;;5070196;28;20033;-66
2022/07/03 06:59:20;;;;;;;5.85;1.77;;;21.00;83.20;;;;;;5067998;28;20032;-66
2022/07/03 07:01:46;;;;;;;5.93;1.85;;;21.10;83.70;;;;;;5069166;28;20055;-67
2022/07/03 07:04:11;;;;;;;8.70;2.10;;;21.10;83.00;;;;;;5069324;28;20452;-66
2022/07/03 07:06:37;;;;;;;3.25;1.75;;;21.20;83.70;;;;;;5069776;28;20079;-66
2022/07/03 07:09:04;;;;;;;5.60;1.85;;;21.20;84.20;;;;;;5066476;28;20021;-67
2022/07/03 07:11:30;;;;;;;10.23;1.90;;;21.20;83.00;;;;;;5069922;28;20029;-67
2022/07/03 07:13:55;;;;;;;3.30;1.50;;;21.20;83.50;;;;;;5064881;28;20051;-66
2022/07/03 07:16:21;;;;;;;5.85;1.73;;;21.30;83.30;;;;;;5064711;28;20077;-66
2022/07/03 07:18:47;;;;;;;1.35;1.25;;;21.40;83.50;;;;;;5066016;28;20028;-66
2022/07/03 07:21:13;;;;;;;4.30;2.00;;;21.40;83.50;;;;;;5069288;28;20035;-65
2022/07/03 07:23:41;;;;;;;4.70;1.50;;;21.40;83.50;;;;;;5068666;28;20032;-67
2022/07/03 07:26:07;;;;;;;2.42;1.17;;;21.50;83.80;;;;;;5068445;28;20055;-67
2022/07/03 07:28:34;;;;;;;3.70;1.58;;;21.60;84.10;;;;;;5067920;28;20032;-65
2022/07/03 07:31:04;;;;;;;9.07;1.77;;;21.60;84.20;;;;;;5067632;28;20384;-68
2022/07/03 07:33:30;;;;;;;2.35;1.77;;;21.60;84.30;;;;;;5068200;28;20112;-67
2022/07/03 07:36:00;;;;;;;5.07;1.30;;;21.70;84.30;;;;;;5067485;28;20047;-68
2022/07/03 07:38:25;;;;;;;7.40;1.60;;;21.70;83.70;;;;;;5065879;28;20036;-68
2022/07/03 07:40:51;;;;;;;3.33;1.35;;;21.70;83.20;;;;;;5067495;28;20020;-67
2022/07/03 07:43:17;;;;;;;2.15;1.10;;;21.70;82.60;;;;;;5068182;28;20098;-67
2022/07/03 07:45:43;;;;;;;0.77;0.77;;;21.70;82.50;;;;;;5067124;28;20392;-67
2022/07/03 07:48:08;;;;;;;1.00;0.82;;;21.70;82.30;;;;;;5068800;28;20025;-67
2022/07/03 07:50:35;;;;;;;1.52;1.15;;;21.70;82.10;;;;;;5068564;28;20033;-67
2022/07/03 07:53:00;;;;;;;7.75;1.10;;;21.70;82.00;;;;;;5064592;28;20025;-67
2022/07/03 07:55:26;;;;;;;1.20;1.08;;;21.60;82.10;;;;;;5069145;28;20376;-66
2022/07/03 07:57:55;;;;;;;2.40;1.27;;;21.70;82.00;;;;;;5068752;28;20457;-66
2022/07/03 08:00:24;;;;;;;3.75;1.10;;;21.60;82.50;;;;;;5067484;28;20529;-65
2022/07/03 08:05:37;;;;;;;3.38;1.10;;;21.70;82.30;;;;;;5065127;28;20396;-65
2022/07/03 08:08:07;;;;;;;4.78;1.15;;;21.70;82.50;;;;;;5065233;28;20051;-65
2022/07/03 08:10:37;;;;;;;3.70;1.13;;;21.60;82.20;;;;;;5065776;28;20165;-69
2022/07/03 08:13:03;;;;;;;2.72;1.20;;;21.70;82.60;;;;;;5065314;28;20097;-66
2022/07/03 08:15:29;;;;;;;3.53;1.20;;;21.70;82.80;;;;;;5069427;28;20447;-65
2022/07/03 08:17:54;;;;;;;3.13;1.52;;;21.70;82.80;;;;;;5062064;28;20074;-66
2022/07/03 08:20:23;;;;;;;4.35;1.48;;;21.70;83.10;;;;;;5067416;28;20093;-66
2022/07/03 08:22:49;;;;;;;2.85;1.35;;;21.70;83.60;;;;;;5067241;28;20044;-65
2022/07/03 08:25:15;;;;;;;2.97;1.38;;;21.80;83.80;;;;;;5061281;28;20032;-66
2022/07/03 08:27:41;;;;;;;4.82;1.40;;;21.90;83.20;;;;;;5064114;28;20048;-66
2022/07/03 08:30:07;;;;;;;2.15;1.17;;;21.90;83.00;;;;;;5053492;28;20606;-66
2022/07/03 08:32:33;;;;;;;2.75;1.00;;;21.90;83.00;;;;;;5068255;28;20033;-66
2022/07/03 08:34:59;;;;;;;1.95;1.08;;;22.00;82.70;;;;;;5066979;28;20032;-66
2022/07/03 08:37:26;;;;;;;3.30;1.20;;;22.10;82.50;;;;;;5067619;28;20033;-66
2022/07/03 08:39:52;;;;;;;2.75;1.40;;;22.10;82.50;;;;;;5067707;28;20052;-66
2022/07/03 08:42:19;;;;;;;2.72;1.17;;;22.10;82.50;;;;;;5065076;28;20052;-66
2022/07/03 08:44:46;;;;;;;2.67;1.23;;;22.10;82.10;;;;;;5069138;28;20078;-66
2022/07/03 08:47:13;;;;;;;2.60;1.30;;;22.10;81.80;;;;;;5068797;28;20033;-66
2022/07/03 08:49:41;;;;;;;2.45;0.90;;;22.10;81.70;;;;;;5067540;28;20029;-66
2022/07/03 08:52:09;;;;;;;3.08;0.98;;;22.20;81.70;;;;;;5067142;28;20432;-66
2022/07/03 08:54:35;;;;;;;4.18;1.02;;;22.20;81.80;;;;;;5070384;28;20017;-66
2022/07/03 08:57:01;;;;;;;1.00;0.88;;;22.20;81.10;;;;;;5071302;28;20025;-65
2022/07/03 08:59:36;;;;;;;1.10;0.63;;;22.20;80.50;;;;;;5071999;28;20032;-66
2022/07/03 09:02:04;;;;;;;5.00;1.00;;;22.20;80.00;;;;;;5070851;28;20028;-67
2022/07/03 09:04:33;;;;;;;2.00;1.40;;;22.30;80.00;;;;;;5072206;28;20094;-67
2022/07/03 09:07:00;;;;;;;1.52;0.95;;;22.30;79.80;;;;;;5066915;28;20088;-63
2022/07/03 09:09:26;;;;;;;1.70;0.90;;;22.30;79.90;;;;;;5064408;28;20464;-65
2022/07/03 09:11:52;;;;;;;3.38;1.02;;;22.30;79.70;;;;;;5071732;28;20032;-65
2022/07/03 09:14:19;;;;;;;2.03;1.10;;;22.40;79.60;;;;;;5071402;28;20021;-65
2022/07/03 09:16:45;;;;;;;1.67;0.80;;;22.40;79.50;;;;;;5071289;28;20032;-67
2022/07/03 09:19:11;;;;;;;4.63;0.82;;;22.40;79.20;;;;;;5071072;28;20499;-67
2022/07/03 09:21:38;;;;;;;1.60;0.82;;;22.40;79.30;;;;;;5065252;28;20454;-67
2022/07/03 09:24:08;;;;;;;2.05;0.80;;;22.40;79.40;;;;;;5067498;28;20024;-67
2022/07/03 09:26:35;;;;;;;2.25;0.70;;;22.40;79.40;;;;;;5062008;28;20071;-67
2022/07/03 09:29:02;;;;;;;2.30;0.90;;;22.50;79.30;;;;;;5071328;28;20033;-67
2022/07/03 09:31:31;;;;;;;4.95;0.93;;;22.50;79.00;;;;;;5069044;28;20028;-66
2022/07/03 09:34:05;;;;;;;4.75;1.10;;;22.50;78.50;;;;;;5070722;28;20068;-67
2022/07/03 09:36:46;;;;;;;2.42;1.08;;;22.50;79.00;;;;;;5066840;28;20495;-66
2022/07/03 09:39:31;;;;;;;2.65;1.00;;;22.60;77.90;;;;;;5064551;28;20116;-67
2022/07/03 09:42:09;;;;;;;4.68;0.90;;;22.60;78.30;;;;;;5068084;28;20522;-67
2022/07/03 09:44:40;;;;;;;2.05;0.73;;;22.60;78.50;;;;;;5067487;28;20116;-67
2022/07/03 09:47:16;;;;;;;0.30;0.30;;;22.60;78.20;;;;;;5068833;28;20033;-67
2022/07/03 09:50:04;;;;;;;2.15;0.70;;;22.60;78.00;;;;;;5067504;28;20068;-67
2022/07/03 09:52:40;;;;;;;3.70;0.88;;;22.60;77.30;;;;;;5061219;28;20025;-67
2022/07/03 09:55:06;;;;;;;0.98;0.68;;;22.70;77.30;;;;;;5073519;28;20032;-68
2022/07/03 09:57:31;;;;;;;2.33;0.50;;;22.70;76.90;;;;;;5062646;28;20438;-68
2022/07/03 10:00:15;;;;;;;1.65;0.57;;;22.70;76.50;;;;;;5070427;28;20025;-68
2022/07/03 10:03:06;;;;;;;0.40;0.40;;;22.70;76.10;;;;;;5070239;28;20037;-68
2022/07/03 10:05:33;;;;;;;0.30;0.30;;;22.70;76.50;;;;;;5069271;28;20510;-69
2022/07/03 10:08:12;;;;;;;0.28;0.28;;;22.70;76.10;;;;;;5065553;28;20174;-68
2022/07/03 10:10:41;;;;;;;0.73;0.70;;;22.80;76.20;;;;;;5061473;28;20142;-68
2022/07/03 10:13:07;;;;;;;0.40;0.40;;;22.70;75.50;;;;;;5073624;28;20468;-68
2022/07/03 10:15:37;;;;;;;1.65;0.70;;;22.80;76.20;;;;;;5067133;28;20465;-67
2022/07/03 10:18:08;;;;;;;0.70;0.50;;;22.80;76.10;;;;;;5068943;28;20075;-67
2022/07/03 10:20:47;;;;;;;2.28;0.93;;;22.80;76.60;;;;;;5068790;28;20077;-67
2022/07/03 10:23:15;;;;;;;0.32;0.20;;;22.90;76.20;;;;;;5069105;28;20036;-67
2022/07/03 10:25:42;;;;;;;0.10;0.10;;;22.90;76.40;;;;;;5069696;28;20112;-67
2022/07/03 10:28:10;;;;;;;0.52;0.50;;;23.00;76.80;;;;;;5070795;28;20159;-67
2022/07/03 10:30:37;;;;;;;1.35;0.63;;;23.00;76.90;;;;;;5070521;28;20036;-68
2022/07/03 10:33:03;;;;;;;5.38;0.80;;;23.00;76.70;;;;;;5063961;28;20120;-66
2022/07/03 10:35:38;;;;;;;0.80;0.77;;;23.10;77.00;;;;;;5066855;28;20128;-67
2022/07/03 10:38:03;;;;;;;1.30;0.45;;;23.10;77.30;;;;;;5067593;28;20056;-70
2022/07/03 10:46:16;;;;;;;2.03;0.75;;;23.30;76.30;;;;;;5066601;28;20028;-67
2022/07/03 10:49:01;;;;;;;1.48;0.55;;;23.30;76.40;;;;;;5066567;28;20033;-67
2022/07/03 10:51:30;;;;;;;1.20;0.80;;;23.40;76.70;;;;;;5067890;28;20040;-67
2022/07/03 10:54:25;;;;;;;3.38;0.95;;;23.40;76.80;;;;;;5064059;28;20480;-67
2022/07/03 10:57:02;;;;;;;2.80;0.73;;;23.50;76.40;;;;;;5069169;28;20028;-66
2022/07/03 10:59:44;;;;;;;1.50;1.00;;;23.50;76.10;;;;;;5068050;28;20392;-66
2022/07/03 11:02:54;;;;;;;2.40;0.88;;;23.60;76.50;;;;;;5065577;28;20056;-65
2022/07/03 11:05:25;;;;;;;1.27;0.65;;;23.60;76.90;;;;;;5063141;28;20041;-65
2022/07/03 11:07:53;;;;;;;2.72;0.75;;;23.70;76.50;;;;;;5067907;28;20487;-67
2022/07/03 11:10:19;;;;;;;1.42;0.70;;;23.70;76.00;;;;;;5067521;28;20039;-67
2022/07/03 11:13:04;;;;;;;2.80;0.40;;;23.80;75.30;;;;;;5060618;28;20116;-69
2022/07/03 11:15:34;;;;;;;1.05;0.65;;;23.80;75.10;;;;;;5067310;28;20078;-67
2022/07/03 11:18:13;;;;;;;0.60;0.60;;;23.80;74.90;;;;;;5066440;28;20028;-67
2022/07/03 11:20:44;;;;;;;2.50;0.70;;;23.80;74.70;;;;;;5065858;28;20531;-67
2022/07/03 11:23:19;;;;;;;1.52;0.70;;;23.90;74.10;;;;;;5067794;28;20082;-66
2022/07/03 11:25:50;;;;;;;0.30;0.30;;;23.90;74.40;;;;;;5067336;28;20051;-67
2022/07/03 11:28:34;;;;;;;2.03;0.90;;;23.90;74.50;;;;;;5068935;28;20032;-68
2022/07/03 11:31:13;;;;;;;0.32;0.32;;;24.00;74.50;;;;;;5070497;28;20024;-66
2022/07/03 11:33:51;;;;;;;0.38;0.28;;;24.00;74.60;;;;;;5064722;28;20074;-66
2022/07/03 11:36:16;;;;;;;10.65;1.80;;;24.00;74.50;;;;;;5062777;28;20067;-66
2022/07/03 11:38:43;;;;;;;9.38;1.23;;;24.00;76.70;;;;;;5062681;28;20052;-66
2022/07/03 11:41:14;;;;;;;6.35;1.63;;;24.10;78.50;;;;;;5060803;28;20036;-65
2022/07/03 11:43:50;;;;;;;6.88;1.30;;;24.20;79.10;;;;;;5066332;28;20380;-66
2022/07/03 11:46:21;;;;;;;6.32;1.48;;;24.30;78.80;;;;;;5071079;28;20454;-66
2022/07/03 11:48:47;;;;;;;9.55;1.95;;;24.40;79.10;;;;;;5058105;28;20071;-66
2022/07/03 11:51:14;;;;;;;7.20;2.15;;;24.40;79.40;;;;;;5057832;28;20049;-66
2022/07/03 11:53:40;;;;;;;8.32;1.90;;;24.40;79.60;;;;;;5051998;28;20040;-66
2022/07/03 11:56:11;;;;;;;8.48;1.70;;;24.50;80.50;;;;;;5049489;28;20480;-67
2022/07/03 11:58:45;;;;;;;7.72;1.58;;;24.50;80.40;;;;;;5063735;28;20388;-67
2022/07/03 12:01:32;;;;;;;14.20;2.45;;;24.60;80.10;;;;;;5069971;28;20460;-67
2022/07/03 12:04:18;;;;;;;9.23;1.70;;;24.60;80.10;;;;;;5065611;28;20036;-67
2022/07/03 12:06:48;;;;;;;11.25;1.40;;;24.60;80.30;;;;;;5071653;28;20140;-67
2022/07/03 12:09:21;;;;;;;8.65;1.60;;;24.60;80.20;;;;;;5052907;28;20464;-67
2022/07/03 12:11:54;;;;;;;9.02;2.50;;;24.60;80.20;;;;;;5064442;28;20033;-67
2022/07/03 12:14:45;;;;;;;16.38;1.88;;;24.70;80.30;;;;;;5060979;28;20102;-67
2022/07/03 12:17:19;;;;;;;6.43;1.40;;;24.70;80.10;;;;;;5054788;28;20028;-67
2022/07/03 12:20:03;;;;;;;4.85;1.20;;;24.70;80.00;;;;;;5066023;28;20056;-67
2022/07/03 12:22:33;;;;;;;7.22;1.30;;;24.70;79.70;;;;;;5070584;28;20081;-67
2022/07/03 12:25:09;;;;;;;4.63;1.38;;;24.70;79.90;;;;;;5059040;28;20032;-67
2022/07/03 12:27:38;;;;;;;5.05;1.38;;;24.70;80.40;;;;;;5064554;28;20454;-67
2022/07/03 12:30:05;;;;;;;6.68;1.48;;;24.70;81.00;;;;;;5070212;28;20439;-66
2022/07/03 12:32:31;;;;;;;6.82;1.33;;;24.80;80.90;;;;;;5074030;28;20116;-67
2022/07/03 12:35:02;;;;;;;6.28;1.40;;;24.80;81.00;;;;;;5071231;28;20104;-67
2022/07/03 12:37:40;;;;;;;6.57;1.60;;;24.80;80.70;;;;;;5072192;28;20033;-67
2022/07/03 12:40:07;;;;;;;5.15;2.13;;;24.90;80.60;;;;;;5059779;28;20472;-67
2022/07/03 12:42:43;;;;;;;10.48;2.38;;;24.90;80.70;;;;;;5072166;28;20033;-66
2022/07/03 12:45:12;;;;;;;3.73;1.40;;;24.90;80.80;;;;;;5074537;28;20020;-66
2022/07/03 12:47:38;;;;;;;7.13;1.48;;;24.90;80.70;;;;;;5066314;28;20036;-66
2022/07/03 12:50:06;;;;;;;3.45;1.40;;;24.90;80.70;;;;;;5071794;28;20039;-67
2022/07/03 12:52:33;;;;;;;8.65;1.38;;;24.90;80.70;;;;;;5070230;28;20047;-65
2022/07/03 12:55:03;;;;;;;4.75;1.30;;;24.90;80.70;;;;;;5074256;28;20107;-65
2022/07/03 13:00:19;;;;;;;7.30;2.63;;;24.90;80.70;;;;;;5069972;28;20033;-66
2022/07/03 13:02:49;;;;;;;3.40;1.10;;;25.00;81.20;;;;;;5070337;28;20056;-66
2022/07/03 13:05:23;;;;;;;4.40;1.20;;;25.00;81.00;;;;;;5071587;28;20025;-66
2022/07/03 13:07:52;;;;;;;6.45;1.38;;;25.00;80.80;;;;;;5073511;28;20048;-66
2022/07/03 13:10:23;;;;;;;6.57;1.48;;;25.10;81.00;;;;;;5072215;28;20108;-67
2022/07/03 13:12:55;;;;;;;1.02;0.75;;;25.10;80.90;;;;;;5075797;28;20483;-67
2022/07/03 13:15:25;;;;;;;3.47;1.13;;;25.10;80.70;;;;;;5067606;28;20399;-66